Time;durP1;ratioP1;P1;durP2;ratioP2;P2;SDS_P1;SDS_P2;PMS_P1;PMS_P2;Temp;Humidity;BMP_temperature;BMP_pressure;BME280_temperature;BME280_humidity;BME280_pressure;Samples;Min_cycle;Max_cycle;Signal;HPM_P1;HPM_P2
2021/06/22 00:00:43;;;;;;;4.97;2.22;;;;;;;;;;1909300;75;20441;-76
2021/06/22 00:03:09;;;;;;;6.65;2.58;;;;;;;;;;1909515;75;20158;-75
2021/06/22 00:05:36;;;;;;;4.82;2.90;;;;;;;;;;1909524;75;20477;-75
2021/06/22 00:08:03;;;;;;;5.93;3.28;;;;;;;;;;1910285;75;20142;-76
2021/06/22 00:12:58;;;;;;;5.28;2.70;;;;;;;;;;1907757;67;20077;-78
2021/06/22 00:15:28;;;;;;;6.10;2.75;;;;;;;;;;1907777;75;20093;-78
2021/06/22 00:17:55;;;;;;;4.55;2.45;;;;;;;;;;1907672;75;20089;-79
2021/06/22 00:20:24;;;;;;;4.93;2.22;;;;;;;;;;1907947;75;20514;-80
2021/06/22 00:22:51;;;;;;;4.70;2.33;;;;;;;;;;1908182;75;20510;-78
2021/06/22 00:25:19;;;;;;;5.97;2.58;;;;;;;;;;1908140;75;20569;-78
2021/06/22 00:27:46;;;;;;;6.07;2.25;;;;;;;;;;1902340;75;20093;-78
2021/06/22 00:30:14;;;;;;;7.55;2.53;;;;;;;;;;1901380;75;20226;-79
2021/06/22 00:32:42;;;;;;;7.72;2.80;;;;;;;;;;1901700;75;20137;-78
2021/06/22 00:35:11;;;;;;;5.28;3.03;;;;;;;;;;1901271;75;20090;-80
2021/06/22 00:37:37;;;;;;;5.75;2.47;;;;;;;;;;1901941;75;20093;-79
2021/06/22 00:40:06;;;;;;;6.53;2.50;;;;;;;;;;1899615;75;20106;-79
2021/06/22 00:42:35;;;;;;;5.47;2.55;;;;;;;;;;1901134;75;20097;-79
2021/06/22 00:45:02;;;;;;;5.13;3.08;;;;;;;;;;1893642;76;20149;-80
2021/06/22 00:47:33;;;;;;;5.68;3.03;;;;;;;;;;1888345;76;20087;-79
2021/06/22 00:50:02;;;;;;;6.40;3.22;;;;;;;;;;1890966;76;20087;-78
2021/06/22 00:52:30;;;;;;;7.30;3.40;;;;;;;;;;1895887;75;20090;-79
2021/06/22 00:54:58;;;;;;;5.15;2.50;;;;;;;;;;1903098;75;20143;-79
2021/06/22 00:57:25;;;;;;;5.32;3.10;;;;;;;;;;1903017;75;20093;-81
2021/06/22 00:59:52;;;;;;;5.43;2.65;;;;;;;;;;1903145;75;20101;-79
2021/06/22 01:02:21;;;;;;;5.55;3.00;;;;;;;;;;1900735;75;20536;-80
2021/06/22 01:04:48;;;;;;;4.90;2.83;;;;;;;;;;1908847;75;20085;-80
2021/06/22 01:07:16;;;;;;;9.35;2.72;;;;;;;;;;1908671;75;20131;-81
2021/06/22 01:09:44;;;;;;;4.35;2.28;;;;;;;;;;1908795;75;20096;-77
2021/06/22 01:12:11;;;;;;;4.68;2.78;;;;;;;;;;1903531;75;20578;-80
2021/06/22 01:14:42;;;;;;;4.95;2.40;;;;;;;;;;1903017;75;20089;-79
2021/06/22 01:17:09;;;;;;;4.43;2.72;;;;;;;;;;1909084;75;20088;-79
2021/06/22 01:19:38;;;;;;;4.68;2.63;;;;;;;;;;1902710;75;20085;-79
2021/06/22 01:22:07;;;;;;;6.22;2.67;;;;;;;;;;1908605;75;20143;-79
2021/06/22 01:24:34;;;;;;;4.63;2.90;;;;;;;;;;1905362;75;20081;-78
2021/06/22 01:27:02;;;;;;;6.25;3.10;;;;;;;;;;1901903;75;20082;-79
2021/06/22 01:29:30;;;;;;;6.38;2.78;;;;;;;;;;1900482;75;20130;-79
2021/06/22 01:31:58;;;;;;;5.43;2.55;;;;;;;;;;1900954;75;20089;-79
2021/06/22 01:34:27;;;;;;;6.10;2.30;;;;;;;;;;1898281;75;20093;-79
2021/06/22 01:36:54;;;;;;;5.15;1.90;;;;;;;;;;1903062;75;20229;-79
2021/06/22 01:39:23;;;;;;;4.32;1.60;;;;;;;;;;1899991;75;20089;-78
2021/06/22 01:41:50;;;;;;;4.35;1.70;;;;;;;;;;1901704;75;20543;-78
2021/06/22 01:44:16;;;;;;;6.07;1.70;;;;;;;;;;1899890;75;20098;-79
2021/06/22 01:46:43;;;;;;;3.70;1.88;;;;;;;;;;1900139;75;20586;-79
2021/06/22 01:49:10;;;;;;;3.50;1.75;;;;;;;;;;1899972;75;20550;-77
2021/06/22 01:51:37;;;;;;;4.43;2.13;;;;;;;;;;1899816;75;20121;-79
2021/06/22 01:54:04;;;;;;;4.75;2.55;;;;;;;;;;1904853;75;20486;-78
2021/06/22 01:56:34;;;;;;;6.55;2.38;;;;;;;;;;1901756;75;20157;-78
2021/06/22 01:59:02;;;;;;;4.30;2.42;;;;;;;;;;1905209;75;20088;-80
2021/06/22 02:01:28;;;;;;;6.18;3.05;;;;;;;;;;1900517;75;20111;-78
2021/06/22 02:03:55;;;;;;;4.97;2.30;;;;;;;;;;1908797;75;20383;-79
2021/06/22 02:06:22;;;;;;;5.15;2.75;;;;;;;;;;1905384;75;20129;-79
2021/06/22 02:08:49;;;;;;;5.65;2.10;;;;;;;;;;1903231;75;20085;-79
2021/06/22 02:11:16;;;;;;;4.97;2.40;;;;;;;;;;1903020;75;20116;-79
2021/06/22 02:13:45;;;;;;;4.03;2.22;;;;;;;;;;1906528;75;20580;-78
2021/06/22 02:16:12;;;;;;;3.90;2.08;;;;;;;;;;1907114;75;20594;-79
2021/06/22 02:18:39;;;;;;;5.40;2.60;;;;;;;;;;1907254;75;20082;-79
2021/06/22 02:21:06;;;;;;;5.88;2.67;;;;;;;;;;1896295;76;20090;-79
2021/06/22 02:23:33;;;;;;;5.25;2.17;;;;;;;;;;1893946;76;20095;-78
2021/06/22 02:26:00;;;;;;;5.32;2.22;;;;;;;;;;1896091;76;20090;-80
2021/06/22 02:28:27;;;;;;;4.47;2.30;;;;;;;;;;1896055;76;20113;-78
2021/06/22 02:30:59;;;;;;;4.50;2.47;;;;;;;;;;1896438;76;20102;-78
2021/06/22 02:33:28;;;;;;;4.30;2.42;;;;;;;;;;1893446;76;20120;-79
2021/06/22 02:35:55;;;;;;;4.70;2.40;;;;;;;;;;1886365;76;20087;-78
2021/06/22 02:38:23;;;;;;;5.50;2.53;;;;;;;;;;1892198;75;20095;-79
2021/06/22 02:40:50;;;;;;;5.20;2.63;;;;;;;;;;1902710;67;20097;-78
2021/06/22 02:43:18;;;;;;;5.78;2.85;;;;;;;;;;1908572;75;20085;-79
2021/06/22 02:45:45;;;;;;;5.15;2.35;;;;;;;;;;1905065;75;20092;-79
2021/06/22 02:48:13;;;;;;;6.35;2.75;;;;;;;;;;1909050;75;20088;-79
2021/06/22 02:50:44;;;;;;;4.40;2.13;;;;;;;;;;1907407;75;20112;-78
2021/06/22 02:53:11;;;;;;;7.60;4.53;;;;;;;;;;1904024;75;20097;-79
2021/06/22 02:55:41;;;;;;;3.53;1.92;;;;;;;;;;1899176;75;20621;-79
2021/06/22 02:58:09;;;;;;;3.35;1.73;;;;;;;;;;1898290;76;20106;-79
2021/06/22 03:00:36;;;;;;;4.25;2.10;;;;;;;;;;1895668;76;20556;-78
2021/06/22 03:03:03;;;;;;;3.85;1.83;;;;;;;;;;1898198;76;20588;-77
2021/06/22 03:05:31;;;;;;;5.80;2.85;;;;;;;;;;1895828;76;20090;-79
2021/06/22 03:08:01;;;;;;;2.60;1.63;;;;;;;;;;1898342;76;20127;-78
2021/06/22 03:10:28;;;;;;;2.95;1.52;;;;;;;;;;1890046;76;20083;-77
2021/06/22 03:12:56;;;;;;;5.13;1.90;;;;;;;;;;1887889;76;20096;-78
2021/06/22 03:15:23;;;;;;;4.45;2.67;;;;;;;;;;1893322;76;20091;-78
2021/06/22 03:17:50;;;;;;;3.70;1.90;;;;;;;;;;1895348;76;20095;-79
2021/06/22 03:20:18;;;;;;;4.32;1.90;;;;;;;;;;1892526;76;20095;-79
2021/06/22 03:22:47;;;;;;;5.50;2.17;;;;;;;;;;1892743;76;20084;-78
2021/06/22 03:25:14;;;;;;;5.13;2.20;;;;;;;;;;1887780;76;20100;-77
2021/06/22 03:27:41;;;;;;;4.38;2.38;;;;;;;;;;1890993;76;20102;-78
2021/06/22 03:30:10;;;;;;;5.60;3.13;;;;;;;;;;1896480;76;20090;-78
2021/06/22 03:32:38;;;;;;;6.05;2.83;;;;;;;;;;1898296;75;20090;-78
2021/06/22 03:35:08;;;;;;;6.90;2.78;;;;;;;;;;1896722;75;20110;-79
2021/06/22 03:37:35;;;;;;;;;;;;;;;;;;1906656;75;20100;-79
2021/06/22 03:40:06;;;;;;;4.65;2.72;;;;;;;;;;1910755;75;19968;-79
2021/06/22 03:42:32;;;;;;;;;;;;;;;;;;1907374;75;20115;-78
2021/06/22 03:44:59;;;;;;;5.05;2.35;;;;;;;;;;1909679;75;19960;-79
2021/06/22 03:47:26;;;;;;;4.15;2.30;;;;;;;;;;1907276;75;20080;-77
2021/06/22 03:49:53;;;;;;;4.57;2.05;;;;;;;;;;1912830;75;20115;-77
2021/06/22 03:52:20;;;;;;;4.97;2.20;;;;;;;;;;1907698;75;20119;-79
2021/06/22 03:54:46;;;;;;;4.38;1.92;;;;;;;;;;1907625;75;20635;-79
2021/06/22 03:57:20;;;;;;;3.50;2.00;;;;;;;;;;1907337;75;20108;-79
2021/06/22 03:59:46;;;;;;;4.32;1.92;;;;;;;;;;1903672;75;20098;-80
2021/06/22 04:02:13;;;;;;;4.78;2.10;;;;;;;;;;1903746;75;20145;-78
2021/06/22 04:04:40;;;;;;;5.50;2.22;;;;;;;;;;1898744;75;20082;-79
2021/06/22 04:07:07;;;;;;;5.88;1.90;;;;;;;;;;1898763;75;20114;-79
2021/06/22 04:09:40;;;;;;;5.05;1.85;;;;;;;;;;1903991;75;20624;-77
2021/06/22 04:12:07;;;;;;;6.38;2.00;;;;;;;;;;1904171;75;20101;-81
2021/06/22 04:14:36;;;;;;;3.50;1.88;;;;;;;;;;1897169;75;20090;-79
2021/06/22 04:17:03;;;;;;;4.07;1.85;;;;;;;;;;1904965;75;20448;-78
2021/06/22 04:19:29;;;;;;;3.53;1.80;;;;;;;;;;1910657;75;20620;-79
2021/06/22 04:21:56;;;;;;;4.85;1.98;;;;;;;;;;1910478;75;20093;-78
2021/06/22 04:24:23;;;;;;;3.17;1.63;;;;;;;;;;1910798;75;20112;-80
2021/06/22 04:26:50;;;;;;;5.72;2.17;;;;;;;;;;1905280;75;20085;-80
2021/06/22 04:29:16;;;;;;;3.47;2.00;;;;;;;;;;1905236;75;20096;-78
2021/06/22 04:31:44;;;;;;;5.68;2.28;;;;;;;;;;1905260;75;20116;-79
2021/06/22 04:34:11;;;;;;;9.07;2.67;;;;;;;;;;1910610;75;20085;-77
2021/06/22 04:36:38;;;;;;;4.22;2.03;;;;;;;;;;1905330;75;20089;-79
2021/06/22 04:39:05;;;;;;;4.30;2.20;;;;;;;;;;1905284;75;20364;-78
2021/06/22 04:41:32;;;;;;;6.35;2.63;;;;;;;;;;1907083;75;20719;-81
2021/06/22 04:43:59;;;;;;;7.47;2.50;;;;;;;;;;1902494;75;20089;-78
2021/06/22 04:46:26;;;;;;;6.85;2.17;;;;;;;;;;1902385;75;20101;-78
2021/06/22 04:48:54;;;;;;;5.88;1.95;;;;;;;;;;1901560;75;20192;-78
2021/06/22 04:51:21;;;;;;;5.55;2.10;;;;;;;;;;1904427;75;20136;-79
2021/06/22 04:53:47;;;;;;;3.58;1.85;;;;;;;;;;1903950;75;20094;-77
2021/06/22 04:56:14;;;;;;;4.97;1.88;;;;;;;;;;1901931;75;20090;-80
2021/06/22 04:58:41;;;;;;;3.35;1.90;;;;;;;;;;1904479;75;20141;-80
2021/06/22 05:01:08;;;;;;;5.22;2.42;;;;;;;;;;1907213;75;20089;-79
2021/06/22 05:03:36;;;;;;;4.97;2.08;;;;;;;;;;1907133;75;20672;-79
2021/06/22 05:06:06;;;;;;;5.03;2.15;;;;;;;;;;1905364;75;20093;-79
2021/06/22 05:08:32;;;;;;;5.37;2.20;;;;;;;;;;1908952;75;20100;-77
2021/06/22 05:10:59;;;;;;;5.03;2.80;;;;;;;;;;1906831;75;20089;-77
2021/06/22 05:13:26;;;;;;;5.55;2.42;;;;;;;;;;1905928;75;20124;-81
2021/06/22 05:15:53;;;;;;;4.60;2.05;;;;;;;;;;1910756;75;20089;-79
2021/06/22 05:18:19;;;;;;;4.13;1.90;;;;;;;;;;1905446;75;20482;-78
2021/06/22 05:20:46;;;;;;;4.05;1.70;;;;;;;;;;1907866;75;20504;-79
2021/06/22 05:23:15;;;;;;;3.30;1.80;;;;;;;;;;1902797;75;20081;-79
2021/06/22 05:25:42;;;;;;;4.78;1.92;;;;;;;;;;1904155;75;20558;-77
2021/06/22 05:28:08;;;;;;;4.75;2.15;;;;;;;;;;1899403;75;20666;-79
2021/06/22 05:30:35;;;;;;;4.85;2.00;;;;;;;;;;1906635;75;20081;-79
2021/06/22 05:33:03;;;;;;;5.75;2.38;;;;;;;;;;1902940;75;20101;-79
2021/06/22 05:35:30;;;;;;;5.05;2.50;;;;;;;;;;1905243;75;20073;-79
2021/06/22 05:37:56;;;;;;;5.05;2.40;;;;;;;;;;1910392;75;20246;-79
2021/06/22 05:40:25;;;;;;;7.20;2.80;;;;;;;;;;1910478;75;20097;-77
2021/06/22 05:42:53;;;;;;;6.95;2.80;;;;;;;;;;1905271;75;20125;-79
2021/06/22 05:45:20;;;;;;;4.60;3.25;;;;;;;;;;1910752;75;20089;-79
2021/06/22 05:47:47;;;;;;;4.60;2.22;;;;;;;;;;1910999;67;20576;-79
2021/06/22 05:50:14;;;;;;;6.18;2.60;;;;;;;;;;1908355;75;20115;-79
2021/06/22 05:52:41;;;;;;;5.15;2.70;;;;;;;;;;1910517;75;20089;-78
2021/06/22 05:55:17;;;;;;;4.97;2.78;;;;;;;;;;1910414;75;20088;-79
2021/06/22 05:57:47;;;;;;;6.82;2.92;;;;;;;;;;1904883;75;20093;-80
2021/06/22 06:00:15;;;;;;;8.43;2.88;;;;;;;;;;1910794;75;20345;-78
2021/06/22 06:02:42;;;;;;;6.40;2.70;;;;;;;;;;1905087;75;20131;-79
2021/06/22 06:05:11;;;;;;;6.60;2.42;;;;;;;;;;1910631;75;20077;-77
2021/06/22 06:07:37;;;;;;;3.90;1.98;;;;;;;;;;1910342;75;20085;-77
2021/06/22 06:10:05;;;;;;;3.45;1.92;;;;;;;;;;1910508;75;20108;-80
2021/06/22 06:12:32;;;;;;;4.85;2.28;;;;;;;;;;1907625;75;20433;-79
2021/06/22 06:15:01;;;;;;;5.50;2.40;;;;;;;;;;1907686;75;20443;-78
2021/06/22 06:17:28;;;;;;;5.55;3.42;;;;;;;;;;1907563;75;20105;-80
2021/06/22 06:19:54;;;;;;;5.63;2.58;;;;;;;;;;1907710;75;20093;-79
2021/06/22 06:22:21;;;;;;;4.38;2.30;;;;;;;;;;1907574;75;20120;-78
2021/06/22 06:24:48;;;;;;;5.65;3.03;;;;;;;;;;1907764;75;20431;-79
2021/06/22 06:27:17;;;;;;;4.22;2.80;;;;;;;;;;1907676;75;20082;-78
2021/06/22 06:29:50;;;;;;;5.95;4.10;;;;;;;;;;1907739;75;20088;-80
2021/06/22 06:32:19;;;;;;;7.82;3.45;;;;;;;;;;1900909;75;20130;-78
2021/06/22 06:34:45;;;;;;;5.65;3.30;;;;;;;;;;1901149;75;20094;-80
2021/06/22 06:37:13;;;;;;;4.60;3.08;;;;;;;;;;1900863;75;20090;-78
2021/06/22 06:39:40;;;;;;;7.10;4.20;;;;;;;;;;1896308;75;20104;-80
2021/06/22 06:42:07;;;;;;;4.80;3.22;;;;;;;;;;1900894;75;20479;-77
2021/06/22 06:44:34;;;;;;;6.32;3.30;;;;;;;;;;1900560;75;20094;-78
2021/06/22 06:47:01;;;;;;;7.43;3.00;;;;;;;;;;1900910;75;20113;-78
2021/06/22 06:49:29;;;;;;;6.38;3.38;;;;;;;;;;1901257;75;20094;-79
2021/06/22 06:51:56;;;;;;;6.68;3.47;;;;;;;;;;1906835;75;20121;-79
2021/06/22 06:54:22;;;;;;;5.82;2.55;;;;;;;;;;1904230;75;20093;-79
2021/06/22 06:56:49;;;;;;;5.22;2.25;;;;;;;;;;1903636;75;20151;-78
2021/06/22 06:59:16;;;;;;;5.50;2.13;;;;;;;;;;1903938;75;20089;-78
2021/06/22 07:01:43;;;;;;;3.97;2.50;;;;;;;;;;1903371;75;20618;-78
2021/06/22 07:04:09;;;;;;;4.22;2.40;;;;;;;;;;1903806;75;20093;-78
2021/06/22 07:06:38;;;;;;;4.13;2.33;;;;;;;;;;1902369;75;20089;-77
2021/06/22 07:09:05;;;;;;;6.50;2.53;;;;;;;;;;1902656;75;20090;-78
2021/06/22 07:11:32;;;;;;;6.32;2.33;;;;;;;;;;1902491;75;20116;-77
2021/06/22 07:13:59;;;;;;;8.73;2.60;;;;;;;;;;1902450;75;20180;-78
2021/06/22 07:16:26;;;;;;;4.22;1.98;;;;;;;;;;1902761;75;20085;-79
2021/06/22 07:18:53;;;;;;;6.57;1.95;;;;;;;;;;1902355;75;20566;-78
2021/06/22 07:21:19;;;;;;;3.97;2.00;;;;;;;;;;1902255;75;20089;-79
2021/06/22 07:23:48;;;;;;;5.72;2.42;;;;;;;;;;1905716;75;20124;-78
2021/06/22 07:26:15;;;;;;;4.30;2.15;;;;;;;;;;1906442;75;20104;-79
2021/06/22 07:28:42;;;;;;;5.88;1.95;;;;;;;;;;1906261;75;20507;-79
2021/06/22 07:31:09;;;;;;;4.43;1.92;;;;;;;;;;1906630;75;20093;-80
2021/06/22 07:33:36;;;;;;;7.72;2.20;;;;;;;;;;1906821;75;20093;-78
2021/06/22 07:36:03;;;;;;;5.15;1.92;;;;;;;;;;1906112;75;20116;-79
2021/06/22 07:38:29;;;;;;;5.30;1.70;;;;;;;;;;1900628;75;20155;-80
2021/06/22 07:40:58;;;;;;;4.13;1.73;;;;;;;;;;1905611;75;20093;-79
2021/06/22 07:43:24;;;;;;;5.30;3.20;;;;;;;;;;1906092;75;20589;-79
2021/06/22 07:45:52;;;;;;;5.70;2.10;;;;;;;;;;1906415;75;20102;-80
2021/06/22 07:48:19;;;;;;;4.75;1.90;;;;;;;;;;1899762;75;20102;-79
2021/06/22 07:50:46;;;;;;;4.45;1.67;;;;;;;;;;1904550;75;20132;-80
2021/06/22 07:53:12;;;;;;;5.72;3.05;;;;;;;;;;1905570;75;20089;-81
2021/06/22 07:55:39;;;;;;;6.43;2.55;;;;;;;;;;1911009;75;20146;-80
2021/06/22 07:58:07;;;;;;;6.93;2.65;;;;;;;;;;1909193;75;20450;-79
2021/06/22 08:00:41;;;;;;;3.15;1.75;;;;;;;;;;1908922;75;20100;-79
2021/06/22 08:03:10;;;;;;;5.72;2.30;;;;;;;;;;1904648;75;20178;-80
2021/06/22 08:05:36;;;;;;;4.60;1.65;;;;;;;;;;1909422;75;20144;-81
2021/06/22 08:08:04;;;;;;;5.15;1.92;;;;;;;;;;1910294;75;20376;-80
2021/06/22 08:10:30;;;;;;;5.70;1.85;;;;;;;;;;1912265;75;20092;-80
2021/06/22 08:12:58;;;;;;;3.80;2.35;;;;;;;;;;1913405;75;20088;-83
2021/06/22 08:15:28;;;;;;;5.57;2.13;;;;;;;;;;1913330;75;20123;-77
2021/06/22 08:17:55;;;;;;;5.25;2.42;;;;;;;;;;1907886;75;20089;-81
2021/06/22 08:20:22;;;;;;;7.82;2.17;;;;;;;;;;1913166;75;20741;-79
2021/06/22 08:22:53;;;;;;;4.82;1.98;;;;;;;;;;1908231;75;20115;-81
2021/06/22 08:25:24;;;;;;;3.88;1.70;;;;;;;;;;1908439;75;20218;-80
2021/06/22 08:27:51;;;;;;;4.22;1.75;;;;;;;;;;1905324;75;20141;-80
2021/06/22 08:30:21;;;;;;;5.53;1.85;;;;;;;;;;1913147;75;20096;-81
2021/06/22 08:32:49;;;;;;;5.68;1.42;;;;;;;;;;1907559;75;20092;-80
2021/06/22 08:35:17;;;;;;;5.88;1.88;;;;;;;;;;1902877;75;20097;-81
2021/06/22 08:37:43;;;;;;;3.83;1.73;;;;;;;;;;1904691;75;20094;-79
2021/06/22 08:40:12;;;;;;;5.50;1.92;;;;;;;;;;1900026;75;20093;-81
2021/06/22 08:42:41;;;;;;;4.43;1.50;;;;;;;;;;1905015;75;20090;-78
2021/06/22 08:45:11;;;;;;;4.82;1.92;;;;;;;;;;1905067;75;20082;-81
2021/06/22 08:47:38;;;;;;;4.03;1.80;;;;;;;;;;1904070;75;20090;-79
2021/06/22 08:50:08;;;;;;;5.68;1.83;;;;;;;;;;1902134;75;20129;-79
2021/06/22 08:52:35;;;;;;;;;;;;;;;;;;1907053;75;20594;-79
2021/06/22 08:55:04;;;;;;;4.50;1.33;;;;;;;;;;1903012;75;19953;-80
2021/06/22 08:57:32;;;;;;;5.95;2.95;;;;;;;;;;1905613;75;20101;-79
2021/06/22 08:59:59;;;;;;;4.70;2.03;;;;;;;;;;1899886;76;20102;-78
2021/06/22 09:02:29;;;;;;;6.55;1.77;;;;;;;;;;1899849;76;20094;-79
2021/06/22 09:04:57;;;;;;;;;;;;;;;;;;1899973;76;20095;-80
2021/06/22 09:07:54;;;;;;;5.82;1.77;;;;;;;;;;1899759;76;19970;-81
2021/06/22 09:10:23;;;;;;;6.55;1.92;;;;;;;;;;1891158;76;20096;-81
2021/06/22 09:12:50;;;;;;;4.65;1.70;;;;;;;;;;1894107;76;20175;-80
2021/06/22 09:15:22;;;;;;;4.38;1.70;;;;;;;;;;1897353;76;20094;-80
2021/06/22 09:23:33;;;;;;;6.22;2.65;;;;;;;;;;1891041;76;20213;-80
2021/06/22 09:26:00;;;;;;;4.80;1.75;;;;;;;;;;1894229;76;20129;-80
2021/06/22 09:28:30;;;;;;;3.65;1.70;;;;;;;;;;1897004;76;20103;-79
2021/06/22 09:31:00;;;;;;;4.53;1.77;;;;;;;;;;1899518;76;20094;-79
2021/06/22 09:33:33;;;;;;;2.95;1.50;;;;;;;;;;1899342;76;20098;-82
2021/06/22 09:36:03;;;;;;;4.43;1.67;;;;;;;;;;1899591;76;20109;-79
2021/06/22 09:38:36;;;;;;;5.35;2.40;;;;;;;;;;1899119;76;20095;-80
2021/06/22 09:41:05;;;;;;;5.82;1.83;;;;;;;;;;1897831;76;20098;-80
2021/06/22 09:43:40;;;;;;;5.63;2.13;;;;;;;;;;1898944;76;20094;-81
2021/06/22 09:46:07;;;;;;;6.13;2.58;;;;;;;;;;1903504;75;20105;-81
2021/06/22 09:48:46;;;;;;;6.60;2.30;;;;;;;;;;1907383;75;20136;-80
2021/06/22 09:51:13;;;;;;;4.07;2.33;;;;;;;;;;1907481;75;20096;-81
2021/06/22 09:53:42;;;;;;;4.15;2.20;;;;;;;;;;1908761;75;20128;-80
2021/06/22 09:56:22;;;;;;;4.07;1.70;;;;;;;;;;1914125;75;20084;-80
2021/06/22 09:58:49;;;;;;;4.50;2.33;;;;;;;;;;1914369;75;20099;-81
2021/06/22 10:01:32;;;;;;;5.82;2.35;;;;;;;;;;1914047;75;20115;-79
2021/06/22 10:04:14;;;;;;;5.40;2.75;;;;;;;;;;1913979;75;20097;-80
2021/06/22 10:06:42;;;;;;;4.55;2.45;;;;;;;;;;1914191;75;20141;-79
2021/06/22 10:09:10;;;;;;;5.95;2.08;;;;;;;;;;1913700;75;20088;-80
2021/06/22 10:11:40;;;;;;;2.40;1.60;;;;;;;;;;1914184;75;20084;-82
2021/06/22 10:14:10;;;;;;;6.93;2.20;;;;;;;;;;1914149;75;20097;-78
2021/06/22 10:16:37;;;;;;;4.47;1.80;;;;;;;;;;1914011;75;20096;-80
2021/06/22 10:19:06;;;;;;;5.45;2.80;;;;;;;;;;1913835;75;20089;-80
2021/06/22 10:21:35;;;;;;;4.43;1.92;;;;;;;;;;1913784;75;20092;-79
2021/06/22 10:24:08;;;;;;;7.13;2.13;;;;;;;;;;1913777;75;20767;-84
2021/06/22 10:26:36;;;;;;;4.10;2.25;;;;;;;;;;1913747;75;20139;-80
2021/06/22 10:29:04;;;;;;;5.78;2.10;;;;;;;;;;1913877;75;20578;-83
2021/06/22 10:31:31;;;;;;;3.15;1.95;;;;;;;;;;1913988;75;20076;-85
2021/06/22 10:34:01;;;;;;;2.92;1.88;;;;;;;;;;1914095;75;20097;-82
2021/06/22 10:36:34;;;;;;;2.85;1.75;;;;;;;;;;1909350;75;20115;-83
2021/06/22 10:39:04;;;;;;;5.57;2.05;;;;;;;;;;1913689;75;20104;-82
2021/06/22 10:41:44;;;;;;;5.60;2.67;;;;;;;;;;1912763;75;20111;-82
2021/06/22 10:44:32;;;;;;;4.90;2.42;;;;;;;;;;1911952;75;20538;-82
2021/06/22 10:47:19;;;;;;;5.68;2.67;;;;;;;;;;1912513;75;20318;-81
2021/06/22 10:50:00;;;;;;;4.93;2.63;;;;;;;;;;1906742;75;20655;-80
2021/06/22 10:52:52;;;;;;;69.20;45.10;;;;;;;;;;1907314;75;20089;-82
2021/06/22 10:56:02;;;;;;;57.67;29.70;;;;;;;;;;1899136;75;20134;-79
2021/06/22 10:58:30;;;;;;;117.85;83.03;;;;;;;;;;1888776;76;20096;-80
2021/06/22 11:01:20;;;;;;;158.40;100.45;;;;;;;;;;1890060;76;20092;-81
2021/06/22 11:04:10;;;;;;;152.32;106.97;;;;;;;;;;1890027;76;20096;-79
2021/06/22 11:06:36;;;;;;;;;;;;;;;;;;1887735;76;20679;-82
2021/06/22 11:09:25;;;;;;;11.70;6.50;;;;;;;;;;1890760;76;20586;-84
2021/06/22 11:12:22;;;;;;;16.40;9.18;;;;;;;;;;1879642;76;20093;-80
2021/06/22 11:15:08;;;;;;;13.80;7.07;;;;;;;;;;1895042;76;20114;-78
2021/06/22 11:18:00;;;;;;;18.25;10.27;;;;;;;;;;1888530;76;20107;-80
2021/06/22 11:20:31;;;;;;;5.80;3.33;;;;;;;;;;1890178;76;20598;-80
2021/06/22 11:23:21;;;;;;;9.15;5.03;;;;;;;;;;1894778;76;20110;-80
2021/06/22 11:26:01;;;;;;;7.60;3.70;;;;;;;;;;1897614;76;20086;-80
2021/06/22 11:28:29;;;;;;;5.43;3.30;;;;;;;;;;1897188;76;20600;-82
2021/06/22 11:30:59;;;;;;;5.13;2.95;;;;;;;;;;1898756;68;20091;-80
2021/06/22 11:33:35;;;;;;;4.28;2.63;;;;;;;;;;1897548;76;20725;-81
2021/06/22 11:36:26;;;;;;;3.90;2.45;;;;;;;;;;1906149;75;20089;-81
2021/06/22 11:39:21;;;;;;;5.22;3.30;;;;;;;;;;1905761;75;20557;-79
2021/06/22 11:42:20;;;;;;;4.50;2.97;;;;;;;;;;1900194;75;20113;-78
2021/06/22 11:44:49;;;;;;;4.75;3.13;;;;;;;;;;1895108;76;20098;-80
2021/06/22 11:47:53;;;;;;;5.47;3.42;;;;;;;;;;1897431;76;20118;-79
2021/06/22 11:50:29;;;;;;;4.40;2.70;;;;;;;;;;1893483;76;20702;-79
2021/06/22 11:53:10;;;;;;;5.70;3.13;;;;;;;;;;1897522;76;20095;-79
2021/06/22 11:55:57;;;;;;;5.15;2.60;;;;;;;;;;1886935;76;20099;-78
2021/06/22 11:58:27;;;;;;;4.72;3.00;;;;;;;;;;1894412;76;20111;-78
2021/06/22 12:00:56;;;;;;;4.25;3.00;;;;;;;;;;1905640;75;20137;-78
2021/06/22 12:03:30;;;;;;;6.55;3.05;;;;;;;;;;1906876;75;20085;-80
2021/06/22 12:06:08;;;;;;;4.65;2.72;;;;;;;;;;1906615;75;20112;-78
2021/06/22 12:08:39;;;;;;;4.28;2.60;;;;;;;;;;1897337;76;20091;-78
2021/06/22 12:11:07;;;;;;;4.55;2.97;;;;;;;;;;1898475;75;20098;-78
2021/06/22 12:13:42;;;;;;;4.63;3.08;;;;;;;;;;1899934;76;20102;-79
2021/06/22 12:16:20;;;;;;;4.60;3.28;;;;;;;;;;1891335;76;20100;-80
2021/06/22 12:18:48;;;;;;;3.65;2.70;;;;;;;;;;1891790;76;20096;-79
2021/06/22 12:21:15;;;;;;;4.50;2.63;;;;;;;;;;1891380;76;20092;-79
2021/06/22 12:23:42;;;;;;;4.47;2.70;;;;;;;;;;1894943;76;20114;-79
2021/06/22 12:26:12;;;;;;;4.47;3.20;;;;;;;;;;1897148;76;20127;-78
2021/06/22 12:28:38;;;;;;;5.38;3.47;;;;;;;;;;1897170;76;20138;-79
2021/06/22 12:31:07;;;;;;;5.15;3.35;;;;;;;;;;1896092;68;20596;-79
2021/06/22 12:33:39;;;;;;;4.63;3.08;;;;;;;;;;1895072;75;20095;-78
2021/06/22 12:36:09;;;;;;;4.22;2.60;;;;;;;;;;1913254;75;20119;-79
2021/06/22 12:38:38;;;;;;;5.30;3.00;;;;;;;;;;1913623;75;20093;-79
2021/06/22 12:41:18;;;;;;;3.83;2.47;;;;;;;;;;1907523;75;20089;-79
2021/06/22 12:43:48;;;;;;;4.43;2.72;;;;;;;;;;1899890;75;20098;-77
2021/06/22 12:46:17;;;;;;;4.60;3.05;;;;;;;;;;1901387;75;20095;-80
2021/06/22 12:48:44;;;;;;;4.32;2.33;;;;;;;;;;1900521;75;20094;-79
2021/06/22 12:51:14;;;;;;;4.18;2.17;;;;;;;;;;1903689;75;20125;-78
2021/06/22 12:53:45;;;;;;;4.38;2.10;;;;;;;;;;1900071;76;20102;-78
2021/06/22 12:56:13;;;;;;;3.85;2.50;;;;;;;;;;1906063;67;20084;-79
2021/06/22 12:58:52;;;;;;;8.82;7.57;;;;;;;;;;1903593;75;20682;-78
2021/06/22 13:01:33;;;;;;;5.28;2.97;;;;;;;;;;1905643;75;20100;-80
2021/06/22 13:04:02;;;;;;;5.70;2.50;;;;;;;;;;1906164;60;20142;-78
2021/06/22 13:06:31;;;;;;;5.35;2.42;;;;;;;;;;1906500;75;20147;-76
2021/06/22 13:09:00;;;;;;;7.97;2.58;;;;;;;;;;1906009;75;20187;-78
2021/06/22 13:11:29;;;;;;;3.85;2.20;;;;;;;;;;1907719;75;20155;-80
2021/06/22 13:14:11;;;;;;;4.55;2.45;;;;;;;;;;1909114;75;20096;-82
2021/06/22 13:16:38;;;;;;;6.90;2.92;;;;;;;;;;1910041;75;20536;-82
2021/06/22 13:19:08;;;;;;;6.53;2.80;;;;;;;;;;1907881;75;20092;-79
2021/06/22 13:21:39;;;;;;;5.85;2.80;;;;;;;;;;1907517;75;20096;-82
2021/06/22 13:24:07;;;;;;;5.15;2.45;;;;;;;;;;1907476;75;20525;-79
2021/06/22 13:26:38;;;;;;;4.32;2.50;;;;;;;;;;1904508;75;20108;-78
2021/06/22 13:29:04;;;;;;;7.13;2.72;;;;;;;;;;1906767;75;20375;-77
2021/06/22 13:31:31;;;;;;;5.72;2.80;;;;;;;;;;1905749;75;20143;-77
2021/06/22 13:34:03;;;;;;;7.35;2.70;;;;;;;;;;1904176;75;20430;-79
2021/06/22 13:36:31;;;;;;;12.10;3.55;;;;;;;;;;1903465;75;20093;-78
2021/06/22 13:39:05;;;;;;;3.83;2.47;;;;;;;;;;1903301;75;20093;-78
2021/06/22 13:41:31;;;;;;;3.95;2.58;;;;;;;;;;1902670;75;20089;-77
2021/06/22 13:43:58;;;;;;;3.90;2.60;;;;;;;;;;1902955;75;20093;-76
2021/06/22 13:46:27;;;;;;;6.30;3.17;;;;;;;;;;1903647;75;20085;-77
2021/06/22 13:48:55;;;;;;;4.80;3.20;;;;;;;;;;1903899;75;20529;-78
2021/06/22 13:51:27;;;;;;;6.32;2.45;;;;;;;;;;1903806;75;20104;-77
2021/06/22 13:54:06;;;;;;;4.13;2.60;;;;;;;;;;1903716;75;20596;-79
2021/06/22 13:56:34;;;;;;;4.32;2.50;;;;;;;;;;1903282;75;20093;-78
2021/06/22 13:59:01;;;;;;;6.00;2.78;;;;;;;;;;1903548;75;20097;-78
2021/06/22 14:01:28;;;;;;;5.93;2.75;;;;;;;;;;1903563;75;20093;-78
2021/06/22 14:03:58;;;;;;;3.95;2.60;;;;;;;;;;1904048;75;20418;-79
2021/06/22 14:06:26;;;;;;;4.28;3.15;;;;;;;;;;1904715;75;20601;-78
2021/06/22 14:08:53;;;;;;;5.18;3.47;;;;;;;;;;1904916;75;20108;-78
2021/06/22 14:11:22;;;;;;;3.80;3.25;;;;;;;;;;1905851;75;20093;-78
2021/06/22 14:13:50;;;;;;;5.13;3.53;;;;;;;;;;1907236;75;20085;-79
2021/06/22 14:16:18;;;;;;;5.88;3.83;;;;;;;;;;1907648;75;20092;-78
2021/06/22 14:18:45;;;;;;;6.50;4.18;;;;;;;;;;1909312;75;20093;-78
2021/06/22 14:21:12;;;;;;;9.73;6.68;;;;;;;;;;1908134;75;20115;-78
2021/06/22 14:23:39;;;;;;;8.80;4.70;;;;;;;;;;1908479;75;20096;-78
2021/06/22 14:26:07;;;;;;;4.93;2.60;;;;;;;;;;1907026;75;20347;-79
2021/06/22 14:28:36;;;;;;;6.32;3.50;;;;;;;;;;1907073;75;20104;-78
2021/06/22 14:31:03;;;;;;;7.13;5.53;;;;;;;;;;1906007;75;20146;-79
2021/06/22 14:33:30;;;;;;;5.97;2.83;;;;;;;;;;1906820;75;20127;-80
2021/06/22 14:35:58;;;;;;;6.00;3.30;;;;;;;;;;1907225;75;20422;-80
2021/06/22 14:38:25;;;;;;;5.30;2.80;;;;;;;;;;1908251;75;20089;-79
2021/06/22 14:40:55;;;;;;;4.00;2.50;;;;;;;;;;1907847;75;20147;-79
2021/06/22 14:43:23;;;;;;;3.83;2.50;;;;;;;;;;1909297;75;20092;-78
2021/06/22 14:45:52;;;;;;;6.90;2.50;;;;;;;;;;1909868;75;20080;-79
2021/06/22 14:48:19;;;;;;;;;;;;;;;;;;1909766;75;20100;-77
2021/06/22 14:50:47;;;;;;;6.00;2.90;;;;;;;;;;1907990;75;20062;-79
2021/06/22 14:53:14;;;;;;;3.90;2.90;;;;;;;;;;1905693;75;20089;-77
2021/06/22 14:55:42;;;;;;;5.75;3.08;;;;;;;;;;1906102;75;20097;-78
2021/06/22 14:58:10;;;;;;;4.32;3.15;;;;;;;;;;1907260;75;20122;-79
2021/06/22 15:00:40;;;;;;;4.25;2.90;;;;;;;;;;1908137;75;20092;-78
2021/06/22 15:03:08;;;;;;;6.13;3.20;;;;;;;;;;1904348;75;20406;-78
2021/06/22 15:05:36;;;;;;;8.43;4.65;;;;;;;;;;1903464;75;20164;-78